sensor_id;sensor_type;location;lat;lon;timestamp;P1;durP1;ratioP1;P2;durP2;ratioP2
50417;SDS011;36346;48.280;14.292;2023-03-23T00:00:10;13.40;;;13.40;;
50417;SDS011;36346;48.280;14.292;2023-03-23T00:02:38;13.38;;;13.38;;
50417;SDS011;36346;48.280;14.292;2023-03-23T00:05:05;13.99;;;13.99;;
50417;SDS011;36346;48.280;14.292;2023-03-23T00:07:34;14.89;;;14.89;;
50417;SDS011;36346;48.280;14.292;2023-03-23T00:10:01;15.36;;;15.36;;
50417;SDS011;36346;48.280;14.292;2023-03-23T00:12:30;15.72;;;15.70;;
50417;SDS011;36346;48.280;14.292;2023-03-23T00:15:05;16.76;;;16.74;;
50417;SDS011;36346;48.280;14.292;2023-03-23T00:17:34;16.37;;;16.37;;
50417;SDS011;36346;48.280;14.292;2023-03-23T00:20:02;17.35;;;17.33;;
50417;SDS011;36346;48.280;14.292;2023-03-23T00:22:32;17.37;;;17.37;;
50417;SDS011;36346;48.280;14.292;2023-03-23T00:25:07;17.12;;;17.11;;
50417;SDS011;36346;48.280;14.292;2023-03-23T00:27:34;16.41;;;16.41;;
50417;SDS011;36346;48.280;14.292;2023-03-23T00:30:02;16.03;;;16.00;;
50417;SDS011;36346;48.280;14.292;2023-03-23T00:32:29;15.75;;;15.75;;
50417;SDS011;36346;48.280;14.292;2023-03-23T00:34:56;14.89;;;14.89;;
50417;SDS011;36346;48.280;14.292;2023-03-23T00:37:25;15.21;;;15.20;;
50417;SDS011;36346;48.280;14.292;2023-03-23T00:39:53;15.70;;;15.62;;
50417;SDS011;36346;48.280;14.292;2023-03-23T00:42:23;16.13;;;16.09;;
50417;SDS011;36346;48.280;14.292;2023-03-23T00:44:51;17.46;;;17.44;;
50417;SDS011;36346;48.280;14.292;2023-03-23T00:47:26;18.77;;;18.71;;
50417;SDS011;36346;48.280;14.292;2023-03-23T00:49:53;18.90;;;18.90;;
50417;SDS011;36346;48.280;14.292;2023-03-23T00:52:22;18.04;;;18.03;;
50417;SDS011;36346;48.280;14.292;2023-03-23T00:54:49;18.78;;;18.77;;
50417;SDS011;36346;48.280;14.292;2023-03-23T00:57:17;17.97;;;17.95;;
50417;SDS011;36346;48.280;14.292;2023-03-23T00:59:44;17.21;;;17.21;;
50417;SDS011;36346;48.280;14.292;2023-03-23T01:02:11;17.76;;;17.72;;
50417;SDS011;36346;48.280;14.292;2023-03-23T01:04:38;17.67;;;17.64;;
50417;SDS011;36346;48.280;14.292;2023-03-23T01:07:06;17.74;;;17.74;;
50417;SDS011;36346;48.280;14.292;2023-03-23T01:09:34;18.18;;;18.15;;
50417;SDS011;36346;48.280;14.292;2023-03-23T01:12:03;17.45;;;17.45;;
50417;SDS011;36346;48.280;14.292;2023-03-23T01:14:32;17.79;;;17.79;;
50417;SDS011;36346;48.280;14.292;2023-03-23T01:16:59;17.40;;;17.40;;
50417;SDS011;36346;48.280;14.292;2023-03-23T01:19:26;16.92;;;16.86;;
50417;SDS011;36346;48.280;14.292;2023-03-23T01:21:54;17.06;;;17.05;;
50417;SDS011;36346;48.280;14.292;2023-03-23T01:24:21;17.12;;;17.11;;
50417;SDS011;36346;48.280;14.292;2023-03-23T01:26:48;18.04;;;18.03;;
50417;SDS011;36346;48.280;14.292;2023-03-23T01:29:16;17.67;;;17.66;;
50417;SDS011;36346;48.280;14.292;2023-03-23T01:31:43;17.76;;;17.76;;
50417;SDS011;36346;48.280;14.292;2023-03-23T01:34:10;17.47;;;17.47;;
50417;SDS011;36346;48.280;14.292;2023-03-23T01:36:38;17.30;;;17.29;;
50417;SDS011;36346;48.280;14.292;2023-03-23T01:39:05;17.92;;;17.91;;
50417;SDS011;36346;48.280;14.292;2023-03-23T01:41:33;17.01;;;17.01;;
50417;SDS011;36346;48.280;14.292;2023-03-23T01:44:59;16.83;;;16.83;;
50417;SDS011;36346;48.280;14.292;2023-03-23T01:47:07;16.03;;;16.03;;
50417;SDS011;36346;48.280;14.292;2023-03-23T01:49:37;16.16;;;16.14;;
50417;SDS011;36346;48.280;14.292;2023-03-23T01:52:18;15.97;;;15.97;;
50417;SDS011;36346;48.280;14.292;2023-03-23T01:54:52;16.13;;;16.13;;
50417;SDS011;36346;48.280;14.292;2023-03-23T01:57:23;15.91;;;15.91;;
50417;SDS011;36346;48.280;14.292;2023-03-23T01:59:56;15.58;;;15.58;;
50417;SDS011;36346;48.280;14.292;2023-03-23T02:02:43;16.25;;;16.25;;
50417;SDS011;36346;48.280;14.292;2023-03-23T02:05:14;15.91;;;15.90;;
50417;SDS011;36346;48.280;14.292;2023-03-23T02:07:50;16.61;;;16.61;;
50417;SDS011;36346;48.280;14.292;2023-03-23T02:10:19;15.82;;;15.82;;
50417;SDS011;36346;48.280;14.292;2023-03-23T02:12:46;16.24;;;16.24;;
50417;SDS011;36346;48.280;14.292;2023-03-23T02:15:13;15.57;;;15.56;;
50417;SDS011;36346;48.280;14.292;2023-03-23T02:17:47;15.05;;;15.04;;
50417;SDS011;36346;48.280;14.292;2023-03-23T02:20:33;14.16;;;14.16;;
50417;SDS011;36346;48.280;14.292;2023-03-23T02:23:31;14.33;;;14.32;;
50417;SDS011;36346;48.280;14.292;2023-03-23T02:34:41;15.69;;;15.67;;
50417;SDS011;36346;48.280;14.292;2023-03-23T02:37:19;16.05;;;16.04;;
50417;SDS011;36346;48.280;14.292;2023-03-23T02:39:50;15.19;;;15.19;;
50417;SDS011;36346;48.280;14.292;2023-03-23T02:42:25;15.10;;;15.10;;
50417;SDS011;36346;48.280;14.292;2023-03-23T02:44:54;14.21;;;14.21;;
50417;SDS011;36346;48.280;14.292;2023-03-23T02:47:25;14.22;;;14.22;;
50417;SDS011;36346;48.280;14.292;2023-03-23T02:49:55;14.46;;;14.46;;
50417;SDS011;36346;48.280;14.292;2023-03-23T02:52:26;14.58;;;14.58;;
50417;SDS011;36346;48.280;14.292;2023-03-23T02:54:57;14.56;;;14.56;;
50417;SDS011;36346;48.280;14.292;2023-03-23T02:57:26;14.90;;;14.90;;
50417;SDS011;36346;48.280;14.292;2023-03-23T02:59:56;14.90;;;14.90;;
50417;SDS011;36346;48.280;14.292;2023-03-23T03:02:24;14.02;;;14.02;;
50417;SDS011;36346;48.280;14.292;2023-03-23T03:05:19;14.16;;;14.15;;
50417;SDS011;36346;48.280;14.292;2023-03-23T03:08:15;14.17;;;14.15;;
50417;SDS011;36346;48.280;14.292;2023-03-23T03:13:21;14.32;;;14.32;;
50417;SDS011;36346;48.280;14.292;2023-03-23T03:16:06;14.01;;;13.99;;
50417;SDS011;36346;48.280;14.292;2023-03-23T03:18:39;13.30;;;13.30;;
50417;SDS011;36346;48.280;14.292;2023-03-23T03:21:17;13.49;;;13.49;;
50417;SDS011;36346;48.280;14.292;2023-03-23T03:23:47;14.09;;;14.09;;
50417;SDS011;36346;48.280;14.292;2023-03-23T03:26:16;14.03;;;14.02;;
50417;SDS011;36346;48.280;14.292;2023-03-23T03:28:54;13.79;;;13.79;;
50417;SDS011;36346;48.280;14.292;2023-03-23T03:31:38;13.65;;;13.65;;
50417;SDS011;36346;48.280;14.292;2023-03-23T03:34:12;13.35;;;13.35;;
50417;SDS011;36346;48.280;14.292;2023-03-23T03:36:45;13.19;;;13.19;;
50417;SDS011;36346;48.280;14.292;2023-03-23T03:39:13;13.13;;;13.13;;
50417;SDS011;36346;48.280;14.292;2023-03-23T03:41:43;12.85;;;12.85;;
50417;SDS011;36346;48.280;14.292;2023-03-23T03:44:10;13.98;;;13.98;;
50417;SDS011;36346;48.280;14.292;2023-03-23T03:46:38;14.10;;;14.10;;
50417;SDS011;36346;48.280;14.292;2023-03-23T03:49:05;14.21;;;14.21;;
50417;SDS011;36346;48.280;14.292;2023-03-23T03:51:39;14.07;;;14.06;;
50417;SDS011;36346;48.280;14.292;2023-03-23T03:54:10;14.08;;;14.08;;
50417;SDS011;36346;48.280;14.292;2023-03-23T03:56:37;13.89;;;13.89;;
50417;SDS011;36346;48.280;14.292;2023-03-23T03:59:25;14.21;;;14.21;;
50417;SDS011;36346;48.280;14.292;2023-03-23T04:02:13;14.40;;;14.40;;
50417;SDS011;36346;48.280;14.292;2023-03-23T04:04:43;14.65;;;14.65;;
50417;SDS011;36346;48.280;14.292;2023-03-23T04:07:10;15.06;;;15.06;;
50417;SDS011;36346;48.280;14.292;2023-03-23T04:09:40;14.72;;;14.72;;
50417;SDS011;36346;48.280;14.292;2023-03-23T04:12:08;14.76;;;14.75;;
50417;SDS011;36346;48.280;14.292;2023-03-23T04:14:54;14.73;;;14.73;;
50417;SDS011;36346;48.280;14.292;2023-03-23T04:17:21;14.87;;;14.87;;
50417;SDS011;36346;48.280;14.292;2023-03-23T04:19:48;14.97;;;14.97;;
50417;SDS011;36346;48.280;14.292;2023-03-23T04:22:15;13.61;;;13.61;;
50417;SDS011;36346;48.280;14.292;2023-03-23T04:24:44;14.72;;;14.72;;
50417;SDS011;36346;48.280;14.292;2023-03-23T04:27:17;14.67;;;14.67;;
50417;SDS011;36346;48.280;14.292;2023-03-23T04:29:44;15.01;;;15.00;;
50417;SDS011;36346;48.280;14.292;2023-03-23T04:32:33;14.11;;;14.11;;
50417;SDS011;36346;48.280;14.292;2023-03-23T04:35:02;14.46;;;14.45;;
50417;SDS011;36346;48.280;14.292;2023-03-23T04:37:37;14.51;;;14.51;;
50417;SDS011;36346;48.280;14.292;2023-03-23T04:40:05;13.81;;;13.78;;
50417;SDS011;36346;48.280;14.292;2023-03-23T04:42:36;14.17;;;14.17;;
50417;SDS011;36346;48.280;14.292;2023-03-23T04:45:23;14.16;;;14.16;;
50417;SDS011;36346;48.280;14.292;2023-03-23T04:47:52;14.58;;;14.58;;
50417;SDS011;36346;48.280;14.292;2023-03-23T04:50:26;14.06;;;14.06;;
50417;SDS011;36346;48.280;14.292;2023-03-23T04:52:59;13.90;;;13.90;;
50417;SDS011;36346;48.280;14.292;2023-03-23T04:55:31;14.23;;;14.23;;
50417;SDS011;36346;48.280;14.292;2023-03-23T04:58:03;15.33;;;15.33;;
50417;SDS011;36346;48.280;14.292;2023-03-23T05:00:58;15.23;;;15.23;;
50417;SDS011;36346;48.280;14.292;2023-03-23T05:03:26;15.09;;;15.05;;
50417;SDS011;36346;48.280;14.292;2023-03-23T05:05:55;15.29;;;15.29;;
50417;SDS011;36346;48.280;14.292;2023-03-23T05:08:23;14.85;;;14.85;;
50417;SDS011;36346;48.280;14.292;2023-03-23T05:10:57;14.65;;;14.65;;
50417;SDS011;36346;48.280;14.292;2023-03-23T05:13:28;14.79;;;14.79;;
50417;SDS011;36346;48.280;14.292;2023-03-23T05:15:58;15.43;;;15.43;;
50417;SDS011;36346;48.280;14.292;2023-03-23T05:18:29;16.65;;;16.65;;
50417;SDS011;36346;48.280;14.292;2023-03-23T05:20:59;19.66;;;19.66;;
50417;SDS011;36346;48.280;14.292;2023-03-23T05:23:27;19.93;;;19.93;;
50417;SDS011;36346;48.280;14.292;2023-03-23T05:26:04;20.78;;;20.78;;
50417;SDS011;36346;48.280;14.292;2023-03-23T05:28:33;20.77;;;20.77;;
50417;SDS011;36346;48.280;14.292;2023-03-23T05:31:16;17.54;;;17.54;;
50417;SDS011;36346;48.280;14.292;2023-03-23T05:33:45;17.81;;;17.78;;
50417;SDS011;36346;48.280;14.292;2023-03-23T05:36:11;18.45;;;18.43;;
50417;SDS011;36346;48.280;14.292;2023-03-23T05:39:12;18.58;;;18.54;;
50417;SDS011;36346;48.280;14.292;2023-03-23T05:42:14;17.52;;;17.47;;
50417;SDS011;36346;48.280;14.292;2023-03-23T05:45:13;16.85;;;16.85;;
50417;SDS011;36346;48.280;14.292;2023-03-23T05:47:42;16.86;;;16.86;;
50417;SDS011;36346;48.280;14.292;2023-03-23T05:50:14;16.27;;;16.27;;
50417;SDS011;36346;48.280;14.292;2023-03-23T05:52:42;16.54;;;16.54;;
50417;SDS011;36346;48.280;14.292;2023-03-23T05:55:11;16.85;;;16.85;;
50417;SDS011;36346;48.280;14.292;2023-03-23T05:57:41;16.87;;;16.87;;
50417;SDS011;36346;48.280;14.292;2023-03-23T06:00:23;17.98;;;17.98;;
50417;SDS011;36346;48.280;14.292;2023-03-23T06:02:59;17.69;;;17.69;;
50417;SDS011;36346;48.280;14.292;2023-03-23T06:05:46;17.39;;;17.39;;
50417;SDS011;36346;48.280;14.292;2023-03-23T06:08:17;17.44;;;17.44;;
50417;SDS011;36346;48.280;14.292;2023-03-23T06:10:45;17.00;;;17.00;;
50417;SDS011;36346;48.280;14.292;2023-03-23T06:13:13;17.42;;;17.42;;
50417;SDS011;36346;48.280;14.292;2023-03-23T06:15:47;19.42;;;19.42;;
50417;SDS011;36346;48.280;14.292;2023-03-23T06:18:33;18.68;;;18.66;;
50417;SDS011;36346;48.280;14.292;2023-03-23T06:21:09;18.40;;;18.39;;
50417;SDS011;36346;48.280;14.292;2023-03-23T06:24:03;20.75;;;20.73;;
50417;SDS011;36346;48.280;14.292;2023-03-23T06:26:35;21.34;;;21.23;;
50417;SDS011;36346;48.280;14.292;2023-03-23T06:29:07;18.93;;;18.93;;
50417;SDS011;36346;48.280;14.292;2023-03-23T06:31:48;19.87;;;19.87;;
50417;SDS011;36346;48.280;14.292;2023-03-23T06:34:21;19.97;;;19.97;;
50417;SDS011;36346;48.280;14.292;2023-03-23T06:37:14;19.45;;;19.44;;
50417;SDS011;36346;48.280;14.292;2023-03-23T06:39:54;20.66;;;20.65;;
50417;SDS011;36346;48.280;14.292;2023-03-23T06:42:29;20.42;;;20.41;;
50417;SDS011;36346;48.280;14.292;2023-03-23T06:45:15;20.75;;;20.68;;
50417;SDS011;36346;48.280;14.292;2023-03-23T06:47:45;22.91;;;22.83;;
50417;SDS011;36346;48.280;14.292;2023-03-23T06:50:15;22.07;;;22.01;;
50417;SDS011;36346;48.280;14.292;2023-03-23T06:52:46;21.34;;;21.34;;
50417;SDS011;36346;48.280;14.292;2023-03-23T06:55:14;21.07;;;21.06;;
50417;SDS011;36346;48.280;14.292;2023-03-23T06:57:42;20.75;;;20.75;;
50417;SDS011;36346;48.280;14.292;2023-03-23T07:00:12;21.38;;;21.38;;
50417;SDS011;36346;48.280;14.292;2023-03-23T07:02:41;21.80;;;21.79;;
50417;SDS011;36346;48.280;14.292;2023-03-23T07:05:09;21.91;;;21.91;;
50417;SDS011;36346;48.280;14.292;2023-03-23T07:07:38;23.61;;;23.61;;
50417;SDS011;36346;48.280;14.292;2023-03-23T07:10:18;23.33;;;23.33;;
50417;SDS011;36346;48.280;14.292;2023-03-23T07:12:46;22.73;;;22.72;;
50417;SDS011;36346;48.280;14.292;2023-03-23T07:15:13;23.07;;;23.07;;
50417;SDS011;36346;48.280;14.292;2023-03-23T07:17:43;22.82;;;22.82;;
50417;SDS011;36346;48.280;14.292;2023-03-23T07:20:19;22.44;;;22.44;;
50417;SDS011;36346;48.280;14.292;2023-03-23T07:22:46;21.63;;;21.62;;
50417;SDS011;36346;48.280;14.292;2023-03-23T07:25:23;21.27;;;21.26;;
50417;SDS011;36346;48.280;14.292;2023-03-23T07:27:53;20.75;;;20.75;;
50417;SDS011;36346;48.280;14.292;2023-03-23T07:30:20;20.94;;;20.94;;
50417;SDS011;36346;48.280;14.292;2023-03-23T07:32:47;20.94;;;20.94;;
50417;SDS011;36346;48.280;14.292;2023-03-23T07:35:14;20.59;;;20.57;;
50417;SDS011;36346;48.280;14.292;2023-03-23T07:38:03;20.06;;;20.06;;
50417;SDS011;36346;48.280;14.292;2023-03-23T07:40:32;20.81;;;20.81;;
50417;SDS011;36346;48.280;14.292;2023-03-23T07:43:05;20.40;;;20.40;;
50417;SDS011;36346;48.280;14.292;2023-03-23T07:45:56;20.24;;;20.24;;
50417;SDS011;36346;48.280;14.292;2023-03-23T07:48:27;20.13;;;20.13;;
50417;SDS011;36346;48.280;14.292;2023-03-23T07:50:54;21.78;;;21.78;;
50417;SDS011;36346;48.280;14.292;2023-03-23T07:53:21;27.65;;;27.63;;
50417;SDS011;36346;48.280;14.292;2023-03-23T07:56:02;29.16;;;29.11;;
50417;SDS011;36346;48.280;14.292;2023-03-23T07:58:56;28.66;;;28.64;;
50417;SDS011;36346;48.280;14.292;2023-03-23T08:01:23;32.12;;;32.10;;
50417;SDS011;36346;48.280;14.292;2023-03-23T08:04:19;30.11;;;30.07;;
50417;SDS011;36346;48.280;14.292;2023-03-23T08:07:07;26.64;;;26.60;;
50417;SDS011;36346;48.280;14.292;2023-03-23T08:09:50;27.85;;;27.81;;
50417;SDS011;36346;48.280;14.292;2023-03-23T08:12:25;27.78;;;27.75;;
50417;SDS011;36346;48.280;14.292;2023-03-23T08:15:11;28.48;;;28.47;;
50417;SDS011;36346;48.280;14.292;2023-03-23T08:18:07;28.89;;;28.87;;
50417;SDS011;36346;48.280;14.292;2023-03-23T08:20:52;29.66;;;29.64;;
50417;SDS011;36346;48.280;14.292;2023-03-23T08:23:58;31.10;;;31.09;;
50417;SDS011;36346;48.280;14.292;2023-03-23T08:26:48;31.67;;;31.65;;
50417;SDS011;36346;48.280;14.292;2023-03-23T08:29:26;30.57;;;30.54;;
50417;SDS011;36346;48.280;14.292;2023-03-23T08:32:13;28.99;;;28.99;;
50417;SDS011;36346;48.280;14.292;2023-03-23T08:34:53;28.94;;;28.93;;
50417;SDS011;36346;48.280;14.292;2023-03-23T08:37:38;27.79;;;27.78;;
50417;SDS011;36346;48.280;14.292;2023-03-23T08:40:23;27.47;;;27.43;;
50417;SDS011;36346;48.280;14.292;2023-03-23T08:43:10;27.66;;;27.42;;
50417;SDS011;36346;48.280;14.292;2023-03-23T08:45:55;27.91;;;27.91;;
50417;SDS011;36346;48.280;14.292;2023-03-23T08:48:43;26.73;;;26.71;;
50417;SDS011;36346;48.280;14.292;2023-03-23T08:51:42;26.65;;;26.65;;
50417;SDS011;36346;48.280;14.292;2023-03-23T08:54:30;26.77;;;26.77;;
50417;SDS011;36346;48.280;14.292;2023-03-23T08:57:01;26.96;;;26.94;;
50417;SDS011;36346;48.280;14.292;2023-03-23T08:59:49;27.84;;;27.82;;
50417;SDS011;36346;48.280;14.292;2023-03-23T09:02:29;27.04;;;27.03;;
50417;SDS011;36346;48.280;14.292;2023-03-23T09:05:26;25.54;;;25.53;;
50417;SDS011;36346;48.280;14.292;2023-03-23T09:08:16;26.73;;;26.73;;
50417;SDS011;36346;48.280;14.292;2023-03-23T09:10:44;27.19;;;27.10;;
50417;SDS011;36346;48.280;14.292;2023-03-23T09:13:11;23.22;;;23.19;;
50417;SDS011;36346;48.280;14.292;2023-03-23T09:15:37;20.79;;;20.79;;
50417;SDS011;36346;48.280;14.292;2023-03-23T09:18:04;18.74;;;18.74;;
50417;SDS011;36346;48.280;14.292;2023-03-23T09:20:32;18.10;;;18.08;;
50417;SDS011;36346;48.280;14.292;2023-03-23T09:23:01;17.75;;;17.75;;
50417;SDS011;36346;48.280;14.292;2023-03-23T09:25:28;18.70;;;18.70;;
50417;SDS011;36346;48.280;14.292;2023-03-23T09:27:57;20.51;;;20.51;;
50417;SDS011;36346;48.280;14.292;2023-03-23T09:30:26;20.09;;;20.08;;
50417;SDS011;36346;48.280;14.292;2023-03-23T09:32:55;20.15;;;20.13;;
50417;SDS011;36346;48.280;14.292;2023-03-23T09:35:23;19.73;;;19.73;;
50417;SDS011;36346;48.280;14.292;2023-03-23T09:37:51;20.05;;;20.04;;
50417;SDS011;36346;48.280;14.292;2023-03-23T09:40:23;19.86;;;19.82;;
50417;SDS011;36346;48.280;14.292;2023-03-23T09:45:51;20.06;;;20.05;;
50417;SDS011;36346;48.280;14.292;2023-03-23T09:51:04;20.63;;;20.57;;
50417;SDS011;36346;48.280;14.292;2023-03-23T09:53:42;21.20;;;21.20;;
50417;SDS011;36346;48.280;14.292;2023-03-23T09:56:15;20.82;;;20.82;;
50417;SDS011;36346;48.280;14.292;2023-03-23T09:58:54;21.12;;;21.11;;
50417;SDS011;36346;48.280;14.292;2023-03-23T10:01:32;20.10;;;20.09;;
50417;SDS011;36346;48.280;14.292;2023-03-23T10:04:50;19.44;;;19.41;;
50417;SDS011;36346;48.280;14.292;2023-03-23T10:07:08;18.22;;;18.20;;
50417;SDS011;36346;48.280;14.292;2023-03-23T10:09:37;18.22;;;18.22;;
50417;SDS011;36346;48.280;14.292;2023-03-23T10:19:53;18.75;;;18.75;;
50417;SDS011;36346;48.280;14.292;2023-03-23T10:22:42;19.02;;;19.02;;
50417;SDS011;36346;48.280;14.292;2023-03-23T10:25:22;19.79;;;19.78;;
50417;SDS011;36346;48.280;14.292;2023-03-23T10:28:12;17.55;;;17.55;;
50417;SDS011;36346;48.280;14.292;2023-03-23T10:30:43;17.91;;;17.91;;
50417;SDS011;36346;48.280;14.292;2023-03-23T10:36:05;18.47;;;18.46;;
50417;SDS011;36346;48.280;14.292;2023-03-23T10:38:47;18.73;;;18.73;;
50417;SDS011;36346;48.280;14.292;2023-03-23T10:41:18;18.37;;;18.36;;
50417;SDS011;36346;48.280;14.292;2023-03-23T10:43:46;18.46;;;18.46;;
50417;SDS011;36346;48.280;14.292;2023-03-23T10:49:04;19.08;;;19.08;;
50417;SDS011;36346;48.280;14.292;2023-03-23T10:51:41;19.78;;;19.78;;
50417;SDS011;36346;48.280;14.292;2023-03-23T10:54:11;19.81;;;19.80;;
50417;SDS011;36346;48.280;14.292;2023-03-23T10:56:39;20.32;;;20.31;;
50417;SDS011;36346;48.280;14.292;2023-03-23T10:59:12;18.98;;;18.98;;
50417;SDS011;36346;48.280;14.292;2023-03-23T11:01:49;19.46;;;19.42;;
50417;SDS011;36346;48.280;14.292;2023-03-23T11:04:18;17.92;;;17.91;;
50417;SDS011;36346;48.280;14.292;2023-03-23T11:06:49;17.31;;;17.31;;
50417;SDS011;36346;48.280;14.292;2023-03-23T11:09:20;17.95;;;17.95;;
50417;SDS011;36346;48.280;14.292;2023-03-23T11:11:50;18.42;;;18.42;;
50417;SDS011;36346;48.280;14.292;2023-03-23T11:17:02;14.07;;;14.07;;
50417;SDS011;36346;48.280;14.292;2023-03-23T11:19:31;12.39;;;12.38;;
50417;SDS011;36346;48.280;14.292;2023-03-23T11:24:33;14.86;;;14.86;;
50417;SDS011;36346;48.280;14.292;2023-03-23T11:27:03;13.42;;;13.42;;
50417;SDS011;36346;48.280;14.292;2023-03-23T11:29:36;13.36;;;13.36;;
50417;SDS011;36346;48.280;14.292;2023-03-23T11:32:18;12.10;;;12.10;;
50417;SDS011;36346;48.280;14.292;2023-03-23T11:34:53;12.77;;;12.77;;
50417;SDS011;36346;48.280;14.292;2023-03-23T11:37:27;14.36;;;14.36;;
50417;SDS011;36346;48.280;14.292;2023-03-23T11:40:02;15.64;;;15.63;;
50417;SDS011;36346;48.280;14.292;2023-03-23T11:42:45;14.45;;;14.45;;
50417;SDS011;36346;48.280;14.292;2023-03-23T11:50:43;13.11;;;13.11;;
50417;SDS011;36346;48.280;14.292;2023-03-23T11:58:50;12.79;;;12.76;;
50417;SDS011;36346;48.280;14.292;2023-03-23T12:06:54;12.67;;;12.64;;
50417;SDS011;36346;48.280;14.292;2023-03-23T12:09:55;12.41;;;12.39;;
50417;SDS011;36346;48.280;14.292;2023-03-23T12:12:35;12.57;;;12.57;;
50417;SDS011;36346;48.280;14.292;2023-03-23T12:15:22;11.80;;;11.78;;
50417;SDS011;36346;48.280;14.292;2023-03-23T12:18:37;11.60;;;11.60;;
50417;SDS011;36346;48.280;14.292;2023-03-23T12:26:39;10.25;;;10.20;;
50417;SDS011;36346;48.280;14.292;2023-03-23T12:37:49;11.49;;;11.46;;
50417;SDS011;36346;48.280;14.292;2023-03-23T12:51:51;7.86;;;7.86;;
50417;SDS011;36346;48.280;14.292;2023-03-23T12:54:29;8.73;;;8.72;;
50417;SDS011;36346;48.280;14.292;2023-03-23T12:57:09;8.63;;;8.62;;
50417;SDS011;36346;48.280;14.292;2023-03-23T13:02:26;9.13;;;9.11;;
50417;SDS011;36346;48.280;14.292;2023-03-23T13:05:00;8.88;;;8.87;;
50417;SDS011;36346;48.280;14.292;2023-03-23T13:07:45;8.29;;;8.25;;
50417;SDS011;36346;48.280;14.292;2023-03-23T13:10:22;8.33;;;8.28;;
50417;SDS011;36346;48.280;14.292;2023-03-23T13:12:54;7.52;;;7.46;;
50417;SDS011;36346;48.280;14.292;2023-03-23T13:17:53;7.17;;;7.12;;
50417;SDS011;36346;48.280;14.292;2023-03-23T13:20:53;6.70;;;6.64;;
50417;SDS011;36346;48.280;14.292;2023-03-23T13:23:28;7.19;;;7.16;;
50417;SDS011;36346;48.280;14.292;2023-03-23T13:26:14;6.47;;;6.43;;
50417;SDS011;36346;48.280;14.292;2023-03-23T13:28:55;7.02;;;7.01;;
50417;SDS011;36346;48.280;14.292;2023-03-23T13:31:44;7.59;;;7.58;;
50417;SDS011;36346;48.280;14.292;2023-03-23T13:39:32;9.17;;;9.17;;
50417;SDS011;36346;48.280;14.292;2023-03-23T13:49:49;8.86;;;8.86;;
50417;SDS011;36346;48.280;14.292;2023-03-23T13:52:49;8.69;;;8.69;;
50417;SDS011;36346;48.280;14.292;2023-03-23T13:55:20;9.01;;;9.01;;
50417;SDS011;36346;48.280;14.292;2023-03-23T14:05:48;9.83;;;9.82;;
50417;SDS011;36346;48.280;14.292;2023-03-23T14:10:55;9.27;;;9.26;;
50417;SDS011;36346;48.280;14.292;2023-03-23T14:16:24;10.75;;;10.75;;
50417;SDS011;36346;48.280;14.292;2023-03-23T14:18:59;10.10;;;10.10;;
50417;SDS011;36346;48.280;14.292;2023-03-23T14:21:37;9.54;;;9.54;;
50417;SDS011;36346;48.280;14.292;2023-03-23T14:24:09;9.08;;;9.08;;
50417;SDS011;36346;48.280;14.292;2023-03-23T14:26:44;9.16;;;9.09;;
50417;SDS011;36346;48.280;14.292;2023-03-23T14:29:12;9.42;;;9.40;;
50417;SDS011;36346;48.280;14.292;2023-03-23T14:31:40;9.11;;;9.11;;
50417;SDS011;36346;48.280;14.292;2023-03-23T14:34:14;9.33;;;9.33;;
50417;SDS011;36346;48.280;14.292;2023-03-23T14:36:44;8.59;;;8.59;;
50417;SDS011;36346;48.280;14.292;2023-03-23T14:39:33;9.13;;;9.13;;
50417;SDS011;36346;48.280;14.292;2023-03-23T14:42:05;8.99;;;8.99;;
50417;SDS011;36346;48.280;14.292;2023-03-23T14:44:42;8.08;;;8.08;;
50417;SDS011;36346;48.280;14.292;2023-03-23T14:47:19;8.45;;;8.45;;
50417;SDS011;36346;48.280;14.292;2023-03-23T14:49:52;7.42;;;7.42;;
50417;SDS011;36346;48.280;14.292;2023-03-23T14:52:21;6.92;;;6.92;;
50417;SDS011;36346;48.280;14.292;2023-03-23T14:54:53;7.12;;;7.11;;
50417;SDS011;36346;48.280;14.292;2023-03-23T14:57:26;7.35;;;7.33;;
50417;SDS011;36346;48.280;14.292;2023-03-23T14:59:55;7.35;;;7.29;;
50417;SDS011;36346;48.280;14.292;2023-03-23T15:02:23;6.51;;;6.51;;
50417;SDS011;36346;48.280;14.292;2023-03-23T15:05:22;6.31;;;6.31;;
50417;SDS011;36346;48.280;14.292;2023-03-23T15:08:14;5.77;;;5.77;;
50417;SDS011;36346;48.280;14.292;2023-03-23T15:13:30;5.47;;;5.47;;
50417;SDS011;36346;48.280;14.292;2023-03-23T15:16:05;5.33;;;5.33;;
50417;SDS011;36346;48.280;14.292;2023-03-23T15:18:38;5.24;;;5.24;;
50417;SDS011;36346;48.280;14.292;2023-03-23T15:21:23;5.19;;;5.19;;
50417;SDS011;36346;48.280;14.292;2023-03-23T15:23:53;4.63;;;4.63;;
50417;SDS011;36346;48.280;14.292;2023-03-23T15:26:25;4.39;;;4.38;;
50417;SDS011;36346;48.280;14.292;2023-03-23T15:29:32;4.14;;;4.11;;
50417;SDS011;36346;48.280;14.292;2023-03-23T15:31:52;3.88;;;3.88;;
50417;SDS011;36346;48.280;14.292;2023-03-23T15:37:37;4.04;;;4.02;;
50417;SDS011;36346;48.280;14.292;2023-03-23T15:40:03;3.78;;;3.78;;
50417;SDS011;36346;48.280;14.292;2023-03-23T15:42:32;3.69;;;3.69;;
50417;SDS011;36346;48.280;14.292;2023-03-23T15:50:19;4.19;;;4.17;;
50417;SDS011;36346;48.280;14.292;2023-03-23T15:52:53;5.02;;;5.02;;
50417;SDS011;36346;48.280;14.292;2023-03-23T15:57:51;3.64;;;3.64;;
50417;SDS011;36346;48.280;14.292;2023-03-23T16:00:21;6.63;;;6.61;;
50417;SDS011;36346;48.280;14.292;2023-03-23T16:02:56;4.61;;;4.54;;
50417;SDS011;36346;48.280;14.292;2023-03-23T16:05:28;3.68;;;3.65;;
50417;SDS011;36346;48.280;14.292;2023-03-23T16:07:57;3.60;;;3.59;;
50417;SDS011;36346;48.280;14.292;2023-03-23T16:10:25;4.05;;;4.03;;
50417;SDS011;36346;48.280;14.292;2023-03-23T16:12:54;3.74;;;3.73;;
50417;SDS011;36346;48.280;14.292;2023-03-23T16:15:22;3.31;;;3.31;;
50417;SDS011;36346;48.280;14.292;2023-03-23T16:17:50;3.69;;;3.69;;
50417;SDS011;36346;48.280;14.292;2023-03-23T16:20:19;3.75;;;3.75;;
50417;SDS011;36346;48.280;14.292;2023-03-23T16:22:49;3.67;;;3.67;;
50417;SDS011;36346;48.280;14.292;2023-03-23T16:25:18;5.60;;;5.60;;
50417;SDS011;36346;48.280;14.292;2023-03-23T16:27:46;4.07;;;4.07;;
50417;SDS011;36346;48.280;14.292;2023-03-23T16:30:21;3.75;;;3.75;;
50417;SDS011;36346;48.280;14.292;2023-03-23T16:32:51;3.96;;;3.96;;
50417;SDS011;36346;48.280;14.292;2023-03-23T16:35:23;3.37;;;3.37;;
50417;SDS011;36346;48.280;14.292;2023-03-23T16:37:53;3.65;;;3.65;;
50417;SDS011;36346;48.280;14.292;2023-03-23T16:40:35;3.54;;;3.54;;
50417;SDS011;36346;48.280;14.292;2023-03-23T16:43:04;4.52;;;4.52;;
50417;SDS011;36346;48.280;14.292;2023-03-23T16:45:37;4.63;;;4.63;;
50417;SDS011;36346;48.280;14.292;2023-03-23T16:48:10;3.45;;;3.45;;
50417;SDS011;36346;48.280;14.292;2023-03-23T16:50:41;3.21;;;3.21;;
50417;SDS011;36346;48.280;14.292;2023-03-23T16:53:10;3.41;;;3.41;;
50417;SDS011;36346;48.280;14.292;2023-03-23T16:55:38;3.53;;;3.53;;
50417;SDS011;36346;48.280;14.292;2023-03-23T16:58:07;3.66;;;3.66;;